Kaharoa — ZM7552 — position and weather

sailwx.info

Track history (hours):
 
Tides and Currents Weather Stations Pressure Air Temp Water Temp Dewpoint Dewpoint Depression Visibility Wind Speed Wind Dir Waves Ship Positions

Oceanographic research ship Kaharoa (New Zealand)

Detailed information on ship capabilities available from University of Delaware's Ocean Information Center.

Last reported at 2017-Nov-18 22:31 UTC. Time now 2017-Nov-22 07:23 UTC.
Position S 32°48' W 072°03'.

Length 28 m; draft 3.5 m.

Type: Fishing. MMSI: 512063000.

Date/timePositionNaut miles runAvg speedWind from/ knotsBaromVisibWave heightAir tempDewpointWater temp
2017-Nov-18 22:31S 32°48' W 072°03'0 9.1
2017-Nov-18 22:28S 32°48' W 072°03'4 9.0
2017-Nov-18 21:59S 32°50' W 071°58'5 9.1
2017-Nov-18 21:26S 32°53' W 071°53'4 9.1
2017-Nov-18 21:00S 32°55' W 071°49'4 8.9
2017-Nov-18 20:30S 32°57' W 071°45'4 8.8
2017-Nov-18 20:00S 32°59' W 071°40'4 7.5
2017-Nov-18 19:30S 33°02' W 071°37'1 1.3
2017-Nov-18 19:00S 33°02' W 071°38'0 0.0
2017-Nov-18 18:30S 33°02' W 071°38'0 0.0
2017-Nov-18 17:57S 33°02' W 071°38'0 0.0
2017-Nov-18 17:30S 33°02' W 071°38'0 0.0
2017-Nov-18 17:00S 33°02' W 071°38'0 0.0
2017-Nov-18 16:27S 33°02' W 071°38'0 0.0
2017-Nov-18 16:00S 33°02' W 071°38'0 0.0
2017-Nov-18 15:30S 33°02' W 071°38'0 0.0
2017-Nov-18 15:00S 33°02' W 071°38'0 0.0
2017-Nov-18 14:30S 33°02' W 071°38'0 0.0
2017-Nov-18 14:00S 33°02' W 071°38'0 0.0
2017-Nov-18 13:30S 33°02' W 071°38'0 0.0
2017-Nov-18 13:00S 33°02' W 071°38'0 0.0
2017-Nov-18 12:27S 33°02' W 071°38'0 0.0
2017-Nov-18 12:00S 33°02' W 071°38'0 0.0
2017-Nov-17 18:03S 33°02' W 071°38'0 0.0
2017-Nov-17 17:57S 33°02' W 071°38'0 0.0
2017-Nov-16 15:53S 33°02' W 071°38'0 0.0
2017-Nov-15 22:55S 33°02' W 071°38'0 0.0
2017-Nov-15 22:19S 33°02' W 071°38'0 0.0
2017-Nov-15 21:43S 33°02' W 071°38'1 0.2
2017-Nov-15 16:52S 33°02' W 071°37'0 0.0
2017-Nov-15 16:13S 33°02' W 071°37'0 0.0
2017-Nov-15 15:58S 33°02' W 071°37'0 0.0
2017-Nov-14 13:49S 33°02' W 071°37'  
Track history (hours):
 
Tides and Currents Weather Stations Pressure Air Temp Water Temp Dewpoint Dewpoint Depression Visibility Wind Speed Wind Dir Waves Ship Positions

Oceanographic research ship Kaharoa (New Zealand)

Detailed information on ship capabilities available from University of Delaware's Ocean Information Center.

Last reported at 2017-Nov-18 22:31 UTC. Time now 2017-Nov-22 07:23 UTC.
Position S 32°48' W 072°03'.

Length 28 m; draft 3.5 m.

Type: Fishing. MMSI: 512063000.

Date/timePositionNaut miles runAvg speedWind from/ knotsBaromVisibWave heightAir tempDewpointWater temp
2017-Nov-18 22:31S 32°48' W 072°03'0 9.1
2017-Nov-18 22:28S 32°48' W 072°03'4 9.0
2017-Nov-18 21:59S 32°50' W 071°58'5 9.1
2017-Nov-18 21:26S 32°53' W 071°53'4 9.1
2017-Nov-18 21:00S 32°55' W 071°49'4 8.9
2017-Nov-18 20:30S 32°57' W 071°45'4 8.8
2017-Nov-18 20:00S 32°59' W 071°40'4 7.5
2017-Nov-18 19:30S 33°02' W 071°37'1 1.3
2017-Nov-18 19:00S 33°02' W 071°38'0 0.0
2017-Nov-18 18:30S 33°02' W 071°38'0 0.0
2017-Nov-18 17:57S 33°02' W 071°38'0 0.0
2017-Nov-18 17:30S 33°02' W 071°38'0 0.0
2017-Nov-18 17:00S 33°02' W 071°38'0 0.0
2017-Nov-18 16:27S 33°02' W 071°38'0 0.0
2017-Nov-18 16:00S 33°02' W 071°38'0 0.0
2017-Nov-18 15:30S 33°02' W 071°38'0 0.0
2017-Nov-18 15:00S 33°02' W 071°38'0 0.0
2017-Nov-18 14:30S 33°02' W 071°38'0 0.0
2017-Nov-18 14:00S 33°02' W 071°38'0 0.0
2017-Nov-18 13:30S 33°02' W 071°38'0 0.0
2017-Nov-18 13:00S 33°02' W 071°38'0 0.0
2017-Nov-18 12:27S 33°02' W 071°38'0 0.0
2017-Nov-18 12:00S 33°02' W 071°38'0 0.0
2017-Nov-17 18:03S 33°02' W 071°38'0 0.0
2017-Nov-17 17:57S 33°02' W 071°38'0 0.0
2017-Nov-16 15:53S 33°02' W 071°38'0 0.0
2017-Nov-15 22:55S 33°02' W 071°38'0 0.0
2017-Nov-15 22:19S 33°02' W 071°38'0 0.0
2017-Nov-15 21:43S 33°02' W 071°38'1 0.2
2017-Nov-15 16:52S 33°02' W 071°37'0 0.0
2017-Nov-15 16:13S 33°02' W 071°37'0 0.0
2017-Nov-15 15:58S 33°02' W 071°37'0 0.0
2017-Nov-14 13:49S 33°02' W 071°37'  

Dump ship's entire track history